Flight Track Log - Related Links

Times and Time Zones

All times are in EDT time to prevent confusion due to time zone crossing. See the UAL647 flight status page for this flight to view local times or setup timezone preferences in your user account.

Time Position Orientation Groundspeed Altitude Reporting Facility
EDT Latitude Longitude Course Direction KTS MPH feet Rate Location/Type
Thu 07:08:26 PM 38.9333 -77.5667 288° West 224 258 2,600  Level Potomac TRACON
Thu 07:09:26 PM 38.9333 -77.6667 270° West 271 312 5,300 2,870 Climbing Potomac TRACON
Thu 07:10:21 PM 38.9378 -77.7586 274° West 287 330 8,100 2,741 Climbing Washington Center
Thu 07:11:22 PM 38.9439 -77.8683 274° West 300 345 10,600 2,100 Climbing Washington Center
Thu 07:12:21 PM 38.9481 -77.9831 273° West 357 411 12,300 2,319 Climbing Washington Center
Thu 07:13:00 PM 38.9162 -78.0979 288° West  Level FlightAware Approximate
Thu 07:13:21 PM 38.9556 -78.1194 274° West 400 460 15,200  Level Washington Center
Thu 07:14:22 PM 38.9611 -78.2533 273° West 405 466 17,700 2,213 Climbing Washington Center
Thu 07:15:23 PM 38.9661 -78.3975 273° West 405 466 19,700 2,017 Climbing Washington Center
Thu 07:16:21 PM 38.9711 -78.5392 273° West 405 466 21,700 1,881 Climbing Washington Center
Thu 07:17:21 PM 38.9758 -78.6889 272° West 411 473 23,400 1,537 Climbing Washington Center
Thu 07:18:22 PM 38.9781 -78.8386 271° West 422 486 24,800 1,377 Climbing Washington Center
Thu 07:19:23 PM 38.9831 -78.9592 273° West 422 486 26,200 1,160 Climbing Washington Center
Thu 07:20:21 PM 38.9867 -79.1247 272° West 422 486 27,100 1,008 Climbing Washington Center
Thu 07:21:22 PM 38.9903 -79.2772 272° West 428 493 28,200 738 Climbing Washington Center
Thu 07:22:23 PM 38.9939 -79.4322 272° West 428 493 28,600 605 Climbing Washington Center
Thu 07:23:21 PM 38.9969 -79.5900 271° West 439 505 29,400 712 Climbing Washington Center
Thu 07:24:21 PM 39.0014 -79.7692 272° West 447 514 30,000 298 Climbing Washington Center
Thu 07:25:22 PM 39.0064 -79.9219 272° West 447 514 30,000  Level Washington Center
Thu 07:26:10 PM 39.0039 -80.0403 268° West 438 504 30,000  Level Indianapolis Center
Thu 07:27:12 PM 39.0058 -80.2089 271° West 440 506 30,000  Level Indianapolis Center
Thu 07:28:14 PM 39.0069 -80.3658 271° West 440 506 30,000  Level Indianapolis Center
Thu 07:29:16 PM 39.0097 -80.5239 271° West 443 510 30,000  Level Indianapolis Center
Thu 07:30:18 PM 39.0122 -80.6794 271° West 438 504 30,000  Level Indianapolis Center
Thu 07:31:20 PM 39.0303 -80.8322 279° West 434 499 30,000  Level Indianapolis Center
Thu 07:32:22 PM 39.0781 -80.9697 294° West 423 487 30,000  Level Indianapolis Center
Thu 07:33:24 PM 39.1447 -81.1286 298° West 423 487 30,000  Level Indianapolis Center
Thu 07:34:26 PM 39.1994 -81.2614 298° West 422 486 30,000  Level Indianapolis Center
Thu 07:35:28 PM 39.2536 -81.3942 298° West 423 487 30,000  Level Indianapolis Center
Thu 07:36:30 PM 39.3086 -81.5283 298° West 425 489 30,000  Level Indianapolis Center
Thu 07:37:32 PM 39.3633 -81.6653 297° West 429 494 30,000  Level Indianapolis Center
Thu 07:38:34 PM 39.4186 -81.8011 298° West 429 494 30,000  Level Indianapolis Center
Thu 07:39:36 PM 39.4858 -81.9669 298° West 434 499 30,000  Level Indianapolis Center
Thu 07:40:38 PM 39.5419 -82.1069 297° West 438 504 30,000 -387 Level Indianapolis Center
Thu 07:41:40 PM 39.6011 -82.2581 297° West 439 505 29,200 -871 Descending Indianapolis Center
Thu 07:42:42 PM 39.6561 -82.3967 297° West 436 502 28,200 -581 Descending Indianapolis Center
Thu 07:43:44 PM 39.7111 -82.5361 297° West 435 501 28,000 -97 Descending Indianapolis Center
Thu 07:44:46 PM 39.7656 -82.6758 297° West 434 499 28,000  Level Indianapolis Center
Thu 07:45:48 PM 39.8203 -82.8150 297° West 435 501 28,000  Level Indianapolis Center
Thu 07:46:50 PM 39.8739 -82.9542 297° West 434 499 28,000  Level Indianapolis Center
Thu 07:47:52 PM 39.9383 -83.1194 297° West 431 496 28,000  Level Indianapolis Center
Thu 07:48:54 PM 39.9922 -83.2586 297° West 435 501 28,000  Level Indianapolis Center
Thu 07:49:56 PM 40.0453 -83.3978 297° West 437 503 28,000  Level Indianapolis Center
Thu 07:50:58 PM 40.0994 -83.5378 297° West 438 504 28,000  Level Indianapolis Center
Thu 07:52:00 PM 40.1625 -83.7067 296° West 437 503 28,000  Level Indianapolis Center
Thu 07:53:02 PM 40.2156 -83.8478 296° West 435 501 28,000  Level Indianapolis Center
Thu 07:54:04 PM 40.2692 -83.9894 296° West 436 502 28,000  Level Indianapolis Center
Thu 07:55:06 PM 40.3031 -84.1419 286° West 436 502 28,000  Level Indianapolis Center
Thu 07:56:08 PM 40.3236 -84.3033 280° West 445 512 28,000  Level Indianapolis Center
Thu 07:57:10 PM 40.3450 -84.4611 280° West 444 511 28,000  Level Indianapolis Center
Thu 07:58:12 PM 40.3700 -84.6525 280° West 445 512 28,000  Level Indianapolis Center
Thu 07:59:14 PM 40.3911 -84.8142 280° West 449 517 28,000  Level Indianapolis Center
Thu 08:00:16 PM 40.4097 -84.9722 279° West 450 518 28,000  Level Indianapolis Center
Thu 08:01:18 PM 40.4300 -85.1311 280° West 446 513 28,000  Level Indianapolis Center
Thu 08:02:35 PM 40.4575 -85.3517 279° West 445 512 28,000  Level Chicago Center
Thu 08:03:38 PM 40.4778 -85.5103 280° West 445 512 28,000 192 Level Chicago Center
Thu 08:04:40 PM 40.4967 -85.6686 279° West 443 510 28,400 581 Climbing Chicago Center
Thu 08:05:42 PM 40.5158 -85.8294 279° West 448 516 29,200 774 Climbing Chicago Center
Thu 08:06:44 PM 40.5356 -85.9911 279° West 450 518 30,000 387 Climbing Chicago Center
Thu 08:07:46 PM 40.5586 -86.1825 279° West 448 516 30,000  Level Chicago Center
Thu 08:08:48 PM 40.5786 -86.3400 280° West 444 511 30,000  Level Chicago Center
Thu 08:09:50 PM 40.5967 -86.4997 279° West 445 512 30,000  Level Chicago Center
Thu 08:10:52 PM 40.6133 -86.6619 278° West 448 516 30,000  Level Chicago Center
Thu 08:11:54 PM 40.6347 -86.8528 278° West 445 512 30,000  Level Chicago Center
Thu 08:12:56 PM 40.6525 -87.0122 278° West 443 510 30,000  Level Chicago Center
Thu 08:13:58 PM 40.6692 -87.1819 277° West 444 511 30,000  Level Chicago Center
Thu 08:15:01 PM 40.6858 -87.3433 278° West 445 512 30,000  Level Chicago Center
Thu 08:16:03 PM 40.7039 -87.5036 279° West 445 512 30,000  Level Chicago Center
Thu 08:17:05 PM 40.7203 -87.6633 278° West 442 509 30,000  Level Chicago Center
Thu 08:18:07 PM 40.7381 -87.8247 278° West 445 512 30,000  Level Chicago Center
Thu 08:19:09 PM 40.7561 -88.0183 277° West 445 512 30,000  Level Chicago Center
Thu 08:20:11 PM 40.7733 -88.1775 278° West 440 506 30,000  Level Chicago Center
Thu 08:21:13 PM 40.7894 -88.3400 278° West 445 512 30,000  Level Chicago Center
Thu 08:22:15 PM 40.8044 -88.5019 277° West 446 513 30,000  Level Chicago Center
Thu 08:24:19 PM 40.8356 -88.8250 277° West 445 512 30,000  Level Chicago Center
Thu 08:25:21 PM 40.8517 -88.9928 277° West 448 516 30,000  Level Chicago Center
Thu 08:26:24 PM 40.8689 -89.1864 277° West 445 512 30,000  Level Chicago Center
Thu 08:27:26 PM 40.8836 -89.3481 277° West 445 512 30,000  Level Chicago Center
Thu 08:28:28 PM 40.8975 -89.5094 277° West 444 511 30,000  Level Chicago Center
Thu 08:29:30 PM 40.9119 -89.6675 277° West 447 514 30,000  Level Chicago Center
Thu 08:30:32 PM 40.9300 -89.8619 277° West 446 513 30,000  Level Chicago Center
Thu 08:31:34 PM 40.9386 -90.0228 274° West 443 510 30,000  Level Chicago Center
Thu 08:32:36 PM 40.9508 -90.1842 276° West 442 509 30,000  Level Chicago Center
Thu 08:33:38 PM 40.9672 -90.3478 278° West 452 520 30,000  Level Chicago Center
Thu 08:34:40 PM 40.9794 -90.5097 276° West 448 516 30,000  Level Chicago Center
Thu 08:35:42 PM 40.9908 -90.6722 275° West 445 512 30,000  Level Chicago Center
Thu 08:36:45 PM 41.0050 -90.8675 276° West 445 512 30,000  Level Chicago Center
Thu 08:37:47 PM 41.0178 -91.0292 276° West 443 510 30,000  Level Chicago Center
Thu 08:38:49 PM 41.0297 -91.1917 276° West 444 511 30,000  Level Chicago Center
Thu 08:39:51 PM 41.0408 -91.3539 275° West 443 510 30,000  Level Chicago Center
Thu 08:40:53 PM 41.0522 -91.5153 275° West 442 509 30,000  Level Chicago Center
Thu 08:41:55 PM 41.0642 -91.6803 276° West 444 511 30,000  Level Chicago Center
Thu 08:42:57 PM 41.0769 -91.8722 275° West 442 509 30,000  Level Chicago Center
Thu 08:43:59 PM 41.1142 -92.0281 288° West 450 518 30,000  Level Chicago Center
Thu 08:45:01 PM 41.1925 -92.1542 310° West 448 516 30,000  Level Chicago Center
Thu 08:46:03 PM 41.2814 -92.2797 313° West 453 521 30,000  Level Chicago Center
Thu 08:47:05 PM 41.3297 -92.4186 295° West 445 512 30,000  Level Chicago Center
Thu 08:48:08 PM 41.3436 -92.6147 275° West 443 510 30,000  Level Chicago Center
Thu 08:49:10 PM 41.3522 -92.7758 274° West 443 510 30,000  Level Chicago Center
Thu 08:50:12 PM 41.3606 -92.9369 274° West 443 510 30,000  Level Chicago Center
Thu 08:51:14 PM 41.3675 -93.0997 273° West 445 512 30,000  Level Chicago Center
Thu 08:52:16 PM 41.3772 -93.2953 274° West 447 514 30,000  Level Chicago Center
Thu 08:53:18 PM 41.3847 -93.4589 274° West 449 517 30,000  Level Chicago Center
Thu 08:54:20 PM 41.3917 -93.6228 273° West 450 518 30,000  Level Chicago Center
Thu 08:55:22 PM 41.3986 -93.7853 273° West 446 513 30,000  Level Chicago Center
Thu 08:56:24 PM 41.4058 -93.9519 273° West 454 522 30,000  Level Chicago Center
Thu 08:57:26 PM 41.4128 -94.1483 273° West 450 518 30,000  Level Chicago Center
Thu 08:58:28 PM 41.4194 -94.3136 273° West 451 519 30,000  Level Chicago Center
Thu 08:59:31 PM 41.4253 -94.4800 273° West 453 521 30,000  Level Chicago Center
Thu 09:00:59 PM 41.4353 -94.7350 273° West 457 526 30,000  Level Minneapolis Center
Thu 09:02:01 PM 41.4408 -94.9042 273° West 457 526 30,000  Level Minneapolis Center
Thu 09:03:03 PM 41.4464 -95.0711 273° West 451 519 30,000  Level Minneapolis Center
Thu 09:04:05 PM 41.4517 -95.2408 272° West 456 525 30,000  Level Minneapolis Center
Thu 09:05:19 PM 41.4564 -95.4431 272° West 455 524 30,000  Level Minneapolis Center
Thu 09:06:22 PM 41.4622 -95.6556 272° West 459 528 30,000  Level Minneapolis Center
Thu 09:07:24 PM 41.4658 -95.8292 272° West 466 536 30,000  Level Minneapolis Center
Thu 09:08:26 PM 41.4706 -96.0008 272° West 466 536 30,000  Level Minneapolis Center
Thu 09:09:28 PM 41.4744 -96.1739 272° West 466 536 30,000  Level Minneapolis Center
Thu 09:10:30 PM 41.4792 -96.3586 272° West 466 536 30,000  Level Minneapolis Center
Thu 09:11:32 PM 41.4811 -96.5292 271° West 463 533 30,000  Level Minneapolis Center
Thu 09:12:34 PM 41.4839 -96.6986 271° West 460 529 30,000  Level Minneapolis Center
Thu 09:13:36 PM 41.4861 -96.8683 271° West 459 528 30,000  Level Minneapolis Center
Thu 09:14:38 PM 41.4900 -97.0706 272° West 457 526 30,000  Level Minneapolis Center
Thu 09:15:40 PM 41.4914 -97.2392 271° West 456 525 30,000  Level Minneapolis Center
Thu 09:16:42 PM 41.4939 -97.4083 271° West 456 525 30,000  Level Minneapolis Center
Thu 09:17:44 PM 41.4961 -97.5772 271° West 457 526 30,000  Level Minneapolis Center
Thu 09:18:46 PM 41.4964 -97.7450 270° West 455 524 30,000  Level Minneapolis Center
Thu 09:19:48 PM 41.4989 -97.9136 271° West 455 524 30,000  Level Minneapolis Center
Thu 09:20:50 PM 41.5003 -98.1161 271° West 455 524 30,000  Level Minneapolis Center
Thu 09:21:52 PM 41.4997 -98.2728 270° West 457 526 30,000  Level Minneapolis Center
Thu 09:22:54 PM 41.5006 -98.4406 270° West 456 525 30,000  Level Minneapolis Center
Thu 09:23:56 PM 41.4992 -98.5878 269° West 454 522 30,000  Level Minneapolis Center
Thu 09:24:59 PM 41.4989 -98.7900 270° West 454 522 30,000  Level Minneapolis Center
Thu 09:25:37 PM 41.5003 -98.9056 271° West 452 520 30,000  Level Denver Center
Thu 09:26:39 PM 41.5000 -99.0711 270° West 451 519 30,000  Level Denver Center
Thu 09:27:41 PM 41.4989 -99.2358 270° West 449 517 30,000  Level Denver Center
Thu 09:28:43 PM 41.4978 -99.4339 270° West 448 516 30,000  Level Denver Center
Thu 09:29:45 PM 41.4961 -99.5989 269° West 447 514 30,000  Level Denver Center
Thu 09:30:47 PM 41.4947 -99.7772 269° West 448 516 30,000  Level Denver Center
Thu 09:31:49 PM 41.4928 -99.9358 269° West 448 516 30,000  Level Denver Center
Thu 09:32:51 PM 41.4911 -100.1211 269° West 449 517 30,000  Level Denver Center
Thu 09:33:53 PM 41.4881 -100.2814 269° West 452 520 30,000  Level Denver Center
Thu 09:34:55 PM 41.4858 -100.4403 269° West 451 519 30,000  Level Denver Center
Thu 09:35:57 PM 41.4825 -100.6258 269° West 451 519 30,000  Level Denver Center
Thu 09:36:59 PM 41.4797 -100.7831 269° West 447 514 30,000  Level Denver Center
Thu 09:38:00 PM 41.4761 -100.9678 269° West 448 516 30,000  Level Denver Center
Thu 09:39:02 PM 41.4736 -101.1261 269° West 449 517 30,000  Level Denver Center
Thu 09:40:04 PM 41.4683 -101.3103 268° West 448 516 30,000  Level Denver Center
Thu 09:41:06 PM 41.4647 -101.4664 268° West 444 511 30,000  Level Denver Center
Thu 09:42:08 PM 41.4600 -101.6497 268° West 445 512 30,000  Level Denver Center
Thu 09:43:10 PM 41.4558 -101.8061 268° West 444 511 30,000  Level Denver Center
Thu 09:44:12 PM 41.4506 -101.9903 268° West 445 512 30,000  Level Denver Center
Thu 09:45:14 PM 41.4450 -102.1475 267° West 445 512 30,000  Level Denver Center
Thu 09:46:16 PM 41.4400 -102.3306 268° West 444 511 30,000  Level Denver Center
Thu 09:47:18 PM 41.4347 -102.4889 268° West 446 513 30,000  Level Denver Center
Thu 09:48:20 PM 41.4275 -102.6614 267° West 447 514 30,000  Level Denver Center
Thu 09:49:22 PM 41.4214 -102.8444 268° West 444 511 30,000  Level Denver Center
Thu 09:50:24 PM 41.4161 -103.0003 267° West 441 507 30,000  Level Denver Center
Thu 09:51:26 PM 41.4092 -103.1569 267° West 444 511 30,000  Level Denver Center
Thu 09:52:28 PM 41.4028 -103.3367 267° West 437 503 30,000  Level Denver Center
Thu 09:53:29 PM 41.3947 -103.4933 266° West 441 507 30,000  Level Denver Center
Thu 09:54:31 PM 41.3875 -103.6733 267° West 436 502 30,000  Level Denver Center
Thu 09:55:33 PM 41.3817 -103.8292 267° West 439 505 30,000  Level Denver Center
Thu 09:56:35 PM 41.3722 -104.0139 266° West 446 513 30,000  Level Denver Center
Thu 09:57:37 PM 41.3650 -104.1703 267° West 443 510 30,000  Level Denver Center
Thu 09:58:39 PM 41.3553 -104.3506 266° West 438 504 30,000  Level Denver Center
Thu 09:59:41 PM 41.3489 -104.5069 267° West 439 505 30,000  Level Denver Center
Thu 10:00:43 PM 41.3650 -104.6611 278° West 448 516 30,000  Level Denver Center
Thu 10:01:45 PM 41.4100 -104.8339 289° West 443 510 30,000  Level Denver Center
Thu 10:02:47 PM 41.4481 -104.9800 289° West 438 504 30,000  Level Denver Center
Thu 10:03:49 PM 41.4839 -105.1567 285° West 441 507 30,000  Level Denver Center
Thu 10:04:51 PM 41.5078 -105.3089 282° West 439 505 30,000  Level Denver Center
Thu 10:05:53 PM 41.5197 -105.4892 275° West 435 501 30,000  Level Denver Center
Thu 10:06:55 PM 41.5081 -105.6442 264° West 438 504 30,000  Level Denver Center
Thu 10:07:57 PM 41.4950 -105.8244 265° West 437 503 30,000  Level Denver Center
Thu 10:08:59 PM 41.4842 -105.9775 265° West 436 502 30,000  Level Denver Center
Thu 10:10:01 PM 41.4719 -106.1325 264° West 438 504 30,000  Level Denver Center
Thu 10:11:03 PM 41.4569 -106.3092 264° West 431 496 30,000  Level Denver Center
Thu 10:12:05 PM 41.4444 -106.4614 264° West 431 496 30,000  Level Denver Center
Thu 10:13:07 PM 41.4283 -106.6289 263° West 432 497 30,000  Level Denver Center
Thu 10:14:09 PM 41.3769 -106.7950 248° West 436 502 30,000  Level Denver Center
Thu 10:15:11 PM 41.3300 -106.9361 246° West 435 501 30,000  Level Denver Center
Thu 10:16:12 PM 41.2764 -107.1008 247° West 435 501 30,000  Level Denver Center
Thu 10:17:14 PM 41.2297 -107.2408 246° West 433 498 30,000  Level Denver Center
Thu 10:18:16 PM 41.1833 -107.3808 246° West 432 497 30,000  Level Denver Center
Thu 10:19:18 PM 41.1283 -107.5436 246° West 431 496 30,000  Level Denver Center
Thu 10:20:20 PM 41.0811 -107.6842 246° West 435 501 30,000  Level Denver Center
Thu 10:21:21 PM 41.0261 -107.8458 246° West 432 497 30,000  Level Denver Center
Thu 10:22:23 PM 40.9781 -107.9861 246° West 434 499 30,000  Level Denver Center
Thu 10:23:25 PM 40.9214 -108.1492 245° Southwest 435 501 30,000  Level Denver Center
Thu 10:24:27 PM 40.8731 -108.2906 246° West 439 505 30,000  Level Denver Center
Thu 10:25:29 PM 40.8250 -108.4297 246° West 436 502 30,000  Level Denver Center
Thu 10:26:30 PM 40.7678 -108.5933 245° Southwest 437 503 30,000  Level Denver Center
Thu 10:27:32 PM 40.7172 -108.7397 246° West 437 503 30,000  Level Denver Center
Thu 10:28:34 PM 40.6678 -108.8781 245° Southwest 436 502 30,000  Level Denver Center
Thu 10:29:36 PM 40.6111 -109.0394 245° Southwest 435 501 30,000  Level Denver Center
Thu 10:30:38 PM 40.5619 -109.1781 245° Southwest 437 503 30,000  Level Denver Center
Thu 10:31:39 PM 40.5044 -109.3372 245° Southwest 433 498 30,000  Level Denver Center
Thu 10:32:41 PM 40.4553 -109.4744 245° Southwest 435 501 30,000  Level Denver Center
Thu 10:33:43 PM 40.3978 -109.6336 245° Southwest 434 499 30,000  Level Denver Center
Thu 10:34:44 PM 40.3472 -109.7706 244° Southwest 437 503 30,000  Level Denver Center
Thu 10:35:46 PM 40.2894 -109.9289 244° Southwest 433 498 30,000  Level Denver Center
Thu 10:36:48 PM 40.2400 -110.0647 245° Southwest 433 498 30,000  Level Denver Center
Thu 10:38:04 PM 40.1731 -110.2456 244° Southwest 433 498 30,000  Level Salt Lake Center
Thu 10:39:06 PM 40.1225 -110.3803 244° Southwest 433 498 30,000  Level Salt Lake Center
Thu 10:40:07 PM 40.0647 -110.5392 245° Southwest 433 498 30,000  Level Salt Lake Center
Thu 10:41:09 PM 40.0133 -110.6733 243° Southwest 433 498 30,000  Level Salt Lake Center
Thu 10:43:12 PM 39.9028 -110.9678 244° Southwest 436 502 30,000  Level Salt Lake Center
Thu 10:44:14 PM 39.8422 -111.1247 243° Southwest 435 501 30,000  Level Salt Lake Center
Thu 10:45:16 PM 39.7914 -111.2597 244° Southwest 434 499 30,000  Level Salt Lake Center
Thu 10:46:18 PM 39.7400 -111.3878 242° Southwest 438 504 30,000  Level Salt Lake Center
Thu 10:47:19 PM 39.6753 -111.5575 244° Southwest 437 503 30,000  Level Salt Lake Center
Thu 10:48:21 PM 39.6211 -111.6978 243° Southwest 436 502 30,000  Level Salt Lake Center
Thu 10:49:23 PM 39.5669 -111.8369 243° Southwest 431 496 30,000  Level Salt Lake Center
Thu 10:50:24 PM 39.5119 -111.9772 243° Southwest 434 499 30,000  Level Salt Lake Center
Thu 10:51:26 PM 39.4572 -112.1153 243° Southwest 431 496 30,000  Level Salt Lake Center
Thu 10:52:28 PM 39.4022 -112.2544 243° Southwest 434 499 30,000  Level Salt Lake Center
Thu 10:53:29 PM 39.3486 -112.3958 244° Southwest 438 504 30,000  Level Salt Lake Center
Thu 10:54:31 PM 39.2894 -112.5617 245° Southwest 431 496 30,000  Level Salt Lake Center
Thu 10:55:33 PM 39.2564 -112.7067 254° West 427 491 30,000  Level Salt Lake Center
Thu 10:56:34 PM 39.2239 -112.8586 255° West 434 499 30,000  Level Salt Lake Center
Thu 10:57:36 PM 39.1906 -113.0103 254° West 441 507 30,000  Level Salt Lake Center
Thu 10:58:38 PM 39.1572 -113.1575 254° West 435 501 30,000  Level Salt Lake Center
Thu 10:59:39 PM 39.1289 -113.3081 256° West 436 502 30,000  Level Salt Lake Center
Thu 11:00:41 PM 39.1297 -113.4647 270° West 442 509 30,000  Level Salt Lake Center
Thu 11:01:43 PM 39.1081 -113.6475 261° West 436 502 30,000  Level Salt Lake Center
Thu 11:02:44 PM 39.0722 -113.7950 253° West 434 499 30,000  Level Salt Lake Center
Thu 11:03:46 PM 39.0353 -113.9428 252° West 435 501 30,000  Level Salt Lake Center
Thu 11:04:47 PM 38.9992 -114.0883 252° West 431 496 30,000  Level Salt Lake Center
Thu 11:05:49 PM 38.9619 -114.2325 252° West 428 493 30,000  Level Salt Lake Center
Thu 11:06:51 PM 38.9258 -114.3778 252° West 430 495 30,000  Level Salt Lake Center
Thu 11:07:52 PM 38.8886 -114.5217 252° West 428 493 30,000  Level Salt Lake Center
Thu 11:08:54 PM 38.8450 -114.6953 252° West 427 491 30,000  Level Salt Lake Center
Thu 11:09:55 PM 38.8081 -114.8397 252° West 428 493 30,000  Level Salt Lake Center
Thu 11:10:57 PM 38.7697 -114.9853 251° West 430 495 30,000  Level Salt Lake Center
Thu 11:11:58 PM 38.7303 -115.1303 251° West 432 497 30,000  Level Salt Lake Center
Thu 11:13:00 PM 38.6928 -115.2736 252° West 430 495 30,000  Level Salt Lake Center
Thu 11:14:02 PM 38.6569 -115.4100 251° West 426 490 30,000  Level Salt Lake Center
Thu 11:15:03 PM 38.6103 -115.5836 251° West 429 494 30,000  Level Salt Lake Center
Thu 11:16:05 PM 38.5733 -115.7275 252° West 428 493 30,000  Level Salt Lake Center
Thu 11:17:06 PM 38.5344 -115.8697 251° West 425 489 30,000  Level Salt Lake Center
Thu 11:18:08 PM 38.4964 -116.0128 251° West 425 489 30,000  Level Salt Lake Center
Thu 11:19:09 PM 38.4572 -116.1547 251° West 426 490 30,000  Level Salt Lake Center
Thu 11:20:11 PM 38.4175 -116.2975 250° West 427 491 30,000  Level Salt Lake Center
Thu 11:21:12 PM 38.3792 -116.4394 251° West 423 487 30,000  Level Salt Lake Center
Thu 11:22:14 PM 38.3400 -116.5811 251° West 424 488 30,000  Level Salt Lake Center
Thu 11:23:15 PM 38.3014 -116.7183 250° West 417 480 30,000  Level Salt Lake Center
Thu 11:24:17 PM 38.2608 -116.8653 251° West 371 427 30,000  Level Salt Lake Center
Thu 11:25:18 PM 38.2269 -116.9861 250° West 363 418 30,000  Level Salt Lake Center
Thu 11:26:20 PM 38.1936 -117.1067 251° West 363 418 30,000  Level Salt Lake Center
Thu 11:27:21 PM 38.1592 -117.2308 251° West 366 421 30,000  Level Salt Lake Center
Thu 11:28:23 PM 38.1033 -117.3575 241° Southwest 382 440 30,000  Level Salt Lake Center
Thu 11:29:24 PM 38.0103 -117.4311 212° Southwest 397 457 30,000  Level Salt Lake Center
Thu 11:30:25 PM 37.9425 -117.5439 233° Southwest 413 475 30,000  Level Salt Lake Center
Thu 11:31:27 PM 37.9303 -117.6886 264° West 411 473 30,000  Level Salt Lake Center
Thu 11:32:28 PM 37.9183 -117.8350 264° West 415 478 30,000  Level Salt Lake Center
Thu 11:33:30 PM 37.9069 -117.9783 264° West 411 473 30,000  Level Salt Lake Center
Thu 11:34:31 PM 37.8956 -118.1192 264° West 403 464 30,000  Level Salt Lake Center
Thu 11:35:32 PM 37.8833 -118.2611 264° West 405 466 30,000  Level Salt Lake Center
Thu 11:36:34 PM 37.8722 -118.4028 264° West 405 466 30,000  Level Salt Lake Center
Thu 11:37:57 PM 37.8544 -118.5994 264° West 401 461 30,000  Level Oakland Center
Thu 11:38:58 PM 37.8417 -118.7406 264° West 402 463 30,000  Level Oakland Center
Thu 11:39:59 PM 37.8283 -118.8944 264° West 398 458 30,000  Level Oakland Center
Thu 11:41:00 PM 37.8164 -119.0342 264° West 399 459 30,000  Level Oakland Center
Thu 11:42:02 PM 37.8044 -119.1742 264° West 401 461 30,000  Level Oakland Center
Thu 11:43:03 PM 37.7908 -119.3139 263° West 400 460 30,000  Level Oakland Center
Thu 11:44:04 PM 37.7778 -119.4517 263° West 397 457 30,000  Level Oakland Center
Thu 11:45:05 PM 37.7639 -119.5922 263° West 400 460 30,000  Level Oakland Center
Thu 11:46:07 PM 37.7503 -119.7344 263° West 405 466 30,000  Level Oakland Center
Thu 11:47:08 PM 37.7344 -119.9000 263° West 399 459 30,000  Level Oakland Center
Thu 11:48:09 PM 37.7211 -120.0372 263° West 394 453 30,000 -246 Level Oakland Center
Thu 11:49:10 PM 37.7092 -120.1653 263° West 377 434 29,500 -1,171 Descending Oakland Center
Thu 11:50:12 PM 37.6964 -120.2983 263° West 376 433 27,600 -1,805 Descending Oakland Center
Thu 11:51:13 PM 37.6822 -120.4314 262° West 381 438 25,800 -1,279 Descending Oakland Center
Thu 11:52:14 PM 37.6681 -120.5606 262° West 377 434 25,000 -639 Descending Oakland Center
Thu 11:53:15 PM 37.6558 -120.6894 263° West 372 428 24,500 -488 Descending Oakland Center
Thu 11:54:17 PM 37.6419 -120.8178 262° West 370 426 24,000 -829 Descending Oakland Center
Thu 11:55:18 PM 37.6281 -120.9433 262° West 363 418 22,800 -1,392 Descending Oakland Center
Thu 11:56:22 PM 37.6000 -121.0833 256° West 350 403 21,100 -1,742 Descending Northern Cal TRACON
Thu 11:57:22 PM 37.5167 -121.1333 205° Southwest 326 375 19,200 -2,000 Descending Northern Cal TRACON
Thu 11:58:22 PM 37.4500 -121.1833 211° Southwest 315 362 17,100 -2,000 Descending Northern Cal TRACON
Thu 11:59:22 PM 37.4333 -121.2833 258° West 322 371 15,200 -1,700 Descending Northern Cal TRACON
Fri 12:00:22 AM 37.4667 -121.3833 293° West 317 365 13,700 -1,350 Descending Northern Cal TRACON
Fri 12:01:22 AM 37.5000 -121.4833 293° West 295 339 12,500 -1,200 Descending Northern Cal TRACON
Fri 12:02:22 AM 37.5333 -121.5667 297° West 261 300 11,300 -850 Descending Northern Cal TRACON
Fri 12:03:22 AM 37.5667 -121.6500 297° West 253 291 10,800 -650 Descending Northern Cal TRACON
Fri 12:04:22 AM 37.5500 -121.7167 253° West 241 277 10,000 -900 Descending Northern Cal TRACON
Fri 12:05:22 AM 37.4833 -121.7333 191° South 210 242 9,000 -1,000 Descending Northern Cal TRACON
Fri 12:06:22 AM 37.4833 -121.8167 270° West 230 265 8,000 -500 Descending Northern Cal TRACON
Fri 12:07:22 AM 37.4833 -121.8833 270° West 207 238 8,000 -500 Level Northern Cal TRACON
Fri 12:08:22 AM 37.5000 -121.9500 288° West 180 207 7,000 -1,148 Descending Northern Cal TRACON
Fri 12:09:17 AM 37.5000 -122.0000 270° West 181 208 5,800 -1,350 Descending Northern Cal TRACON
Fri 12:10:22 AM 37.5167 -122.0667 288° West 174 200 4,300 -1,200 Descending Northern Cal TRACON
Fri 12:11:22 AM 37.5333 -122.1167 293° West 163 188 3,300 -900 Descending Northern Cal TRACON
Fri 12:12:22 AM 37.5500 -122.1667 293° West 160 184 2,500 -730 Descending Northern Cal TRACON
Fri 12:13:17 AM 37.5667 -122.2167 293° West 139 160 1,900 -678 Descending Northern Cal TRACON
Fri 12:14:17 AM 37.5833 -122.2500 302° West 118 136 1,200 -350 Descending Northern Cal TRACON
Fri 12:15:17 AM 37.5833 -122.2833 270° West 124 143 1,200 -350 Level Northern Cal TRACON
Fri 12:16:17 AM 37.6000 -122.3333 293° West 123 142 500 -700 Descending Northern Cal TRACON

Login

Don't have an account? Register now (free) for customized features, flight alerts, and more!